Main page
METAR-TAF:

METAR-TAF

Airports :

Xi'an, China

Xi'an Xianyang International Airport

latitude: 34-26N, longitude: 108-45E, elevation: 479 m

Current weather observation

The report was made 57 minutes ago, at 21:00 UTC
Calm wind
Temperature 2°C
Humidity 87%
Pressure 1019 hPa
Visibility: 7000 m

METAR: ZLXY 192100Z 00000MPS 7000 NSC 02/M00 Q1019 NOSIG

Time: 05:57 (21:57 UTC)

Forecast

The report was made 6 hours and 44 minutes ago, at 15:13 UTC
Forecast valid from 19 at 18 UTC to 20 at 18 UTC
Wind 6 kt from the West/Southwest
Visibility: 3000 m
mist
Becoming
from 19 at 20 UTC to 19 at 21 UTC
Visibility: 2700 m
light rain, mist
Becoming
from 19 at 23 UTC to 19 at 24 UTC
Visibility: 3000 m
Temporary
from 20 at 10 UTC to 20 at 16 UTC
Visibility: 2700 m
light rain, snow, mist

TAF: ZLXY 191513Z 1918/2018 24003MPS 3000 BR NSC TX08/2007Z TN01/1923Z BECMG 1920/1921 2700 -RA BR BECMG 1923/1924 3000 TEMPO 2010/2016 2700 -RASN BR

Weather observations and forecasts of more than 4000 airports (METAR and TAF reports).

The available stations are represented by yellow and red dots on the map.

Hover mouse over dot to see the name of the station.

Then click to see weather observations and forecasts.

To change the map : click on the green buttons with a black cross to zoom in, on the green button with a dash to zoom out, or on the green arrows for adjacent maps.


METAR-TAF: